KDLF/DLF METAR and TAF weather

Enter ICAO airport designator
Station Type Date Time Source
KDLF METAR 2022/05/23 15:23 UTC NOAA

KDLF 231523Z 14009KT 10SM SCT019 BKN070 BKN200 23/19 A3000 RMK AO2A SLP149 $


Station Type Date Time Source
KDLF Decoded METAR 2022/05/23 15:23 UTC NOAA

Laughlin, Laughlin Air Force Base Auxiliary Airfield, TX, United States (KDLF) 29-07-00N 100-28-00W 294M
May 23, 2022 - 11:23 AM EDT / 2022.05.23 1523 UTC
Wind: from the SE (140 degrees) at 10 MPH (9 KT):0
Visibility: 10 mile(s):0
Sky conditions: mostly cloudy
Temperature: 73 F (23 C)
Dew Point: 66 F (19 C)
Relative Humidity: 78%
Pressure (altimeter): 30 in. Hg (1015 hPa)
ob: KDLF 231523Z 14009KT 10SM SCT019 BKN070 BKN200 23/19 A3000 RMK AO2A SLP149
cycle: 15

Station Type Date Time Source
KDLF TAF 2022/05/23 14:51 UTC NOAA

TAF KDLF 231445Z 2314/2417 11015G20KT 9999 VCSH BKN023 OVC050 510103 QNH2992INS
BECMG 2319/2320 10010KT 9999 VCTS BKN030CB OVC055 510103 QNH2989INS
BECMG 2320/2321 VRB40G50KT 3200 +TSRAGR BKN015CB QNH2978INS
BECMG 2403/2404 11012KT 9999 NSW BKN030 QNH2980INS
BECMG 2406/2407 12010KT 9999 VCTS BKN030CB QNH2972INS TX29/2320Z TN21/2410Z

Example: see airport list